sensor_id;sensor_type;location;lat;lon;timestamp;pressure;altitude;pressure_sealevel;temperature;humidity
3598;BME280;1813;52.016;8.714;2023-07-16T00:01:42;-16261.94;;;-139.71;58.09
3598;BME280;1813;52.016;8.714;2023-07-16T00:04:15;-16261.94;;;-139.71;58.14
3598;BME280;1813;52.016;8.714;2023-07-16T00:06:49;-16261.94;;;-139.71;58.38
3598;BME280;1813;52.016;8.714;2023-07-16T00:09:26;-16261.94;;;-139.71;58.58
3598;BME280;1813;52.016;8.714;2023-07-16T00:12:00;-16261.94;;;-139.71;58.92
3598;BME280;1813;52.016;8.714;2023-07-16T00:14:34;-16261.94;;;-139.71;59.14
3598;BME280;1813;52.016;8.714;2023-07-16T00:17:08;-16261.94;;;-139.71;58.93
3598;BME280;1813;52.016;8.714;2023-07-16T00:19:42;-16261.94;;;-139.71;59.21
3598;BME280;1813;52.016;8.714;2023-07-16T00:22:17;-16261.94;;;-139.71;59.32
3598;BME280;1813;52.016;8.714;2023-07-16T00:24:54;-16261.94;;;-139.71;59.38
3598;BME280;1813;52.016;8.714;2023-07-16T00:27:27;-16261.94;;;-139.71;59.03
3598;BME280;1813;52.016;8.714;2023-07-16T00:30:04;-16261.94;;;-139.71;59.27
3598;BME280;1813;52.016;8.714;2023-07-16T00:32:39;-16261.94;;;-139.71;59.19
3598;BME280;1813;52.016;8.714;2023-07-16T00:35:13;-16261.94;;;-139.71;59.45
3598;BME280;1813;52.016;8.714;2023-07-16T00:37:47;-16261.94;;;-139.71;59.88
3598;BME280;1813;52.016;8.714;2023-07-16T00:40:23;-16261.94;;;-139.71;60.14
3598;BME280;1813;52.016;8.714;2023-07-16T00:42:57;-16261.94;;;-139.71;60.18
3598;BME280;1813;52.016;8.714;2023-07-16T00:45:32;-16261.94;;;-139.71;60.08
3598;BME280;1813;52.016;8.714;2023-07-16T00:48:06;-16261.94;;;-139.71;60.20
3598;BME280;1813;52.016;8.714;2023-07-16T00:50:41;-16261.94;;;-139.71;60.30
3598;BME280;1813;52.016;8.714;2023-07-16T00:53:15;-16261.94;;;-139.71;60.62
3598;BME280;1813;52.016;8.714;2023-07-16T00:55:52;-16261.94;;;-139.71;61.08
3598;BME280;1813;52.016;8.714;2023-07-16T00:58:26;-16261.94;;;-139.71;61.84
3598;BME280;1813;52.016;8.714;2023-07-16T01:01:00;-16261.94;;;-139.71;62.19
3598;BME280;1813;52.016;8.714;2023-07-16T01:03:34;-16261.94;;;-139.71;62.55
3598;BME280;1813;52.016;8.714;2023-07-16T01:06:12;-16261.94;;;-139.71;62.91
3598;BME280;1813;52.016;8.714;2023-07-16T01:08:54;-16261.94;;;-139.71;63.03
3598;BME280;1813;52.016;8.714;2023-07-16T01:11:33;-16261.94;;;-139.71;63.28
3598;BME280;1813;52.016;8.714;2023-07-16T01:14:09;-16261.94;;;-139.71;63.89
3598;BME280;1813;52.016;8.714;2023-07-16T01:16:47;-16261.94;;;-139.71;63.78
3598;BME280;1813;52.016;8.714;2023-07-16T01:19:23;-16261.94;;;-139.71;63.94
3598;BME280;1813;52.016;8.714;2023-07-16T01:22:16;-16261.94;;;-139.71;64.10
3598;BME280;1813;52.016;8.714;2023-07-16T01:25:06;-16261.94;;;-139.71;64.10
3598;BME280;1813;52.016;8.714;2023-07-16T01:28:19;-16261.94;;;-139.71;64.13
3598;BME280;1813;52.016;8.714;2023-07-16T01:30:58;-16261.94;;;-139.71;64.11
3598;BME280;1813;52.016;8.714;2023-07-16T01:33:33;-16261.94;;;-139.71;64.31
3598;BME280;1813;52.016;8.714;2023-07-16T01:36:08;-16261.94;;;-139.71;64.77
3598;BME280;1813;52.016;8.714;2023-07-16T01:38:43;-16261.94;;;-139.71;64.82
3598;BME280;1813;52.016;8.714;2023-07-16T01:41:19;-16261.94;;;-139.71;64.94
3598;BME280;1813;52.016;8.714;2023-07-16T01:43:59;-16261.94;;;-139.71;65.09
3598;BME280;1813;52.016;8.714;2023-07-16T01:46:37;-16261.94;;;-139.71;65.12
3598;BME280;1813;52.016;8.714;2023-07-16T01:49:11;-16261.94;;;-139.71;65.22
3598;BME280;1813;52.016;8.714;2023-07-16T01:51:45;-16261.94;;;-139.71;65.44
3598;BME280;1813;52.016;8.714;2023-07-16T01:54:19;-16261.94;;;-139.71;65.52
3598;BME280;1813;52.016;8.714;2023-07-16T01:56:53;-16261.94;;;-139.71;65.77
3598;BME280;1813;52.016;8.714;2023-07-16T01:59:27;-16261.94;;;-139.71;66.11
3598;BME280;1813;52.016;8.714;2023-07-16T02:02:04;-16261.94;;;-139.71;66.67
3598;BME280;1813;52.016;8.714;2023-07-16T02:04:38;-16261.94;;;-139.71;66.96
3598;BME280;1813;52.016;8.714;2023-07-16T02:07:12;-16261.94;;;-139.71;67.07
3598;BME280;1813;52.016;8.714;2023-07-16T02:09:46;-16261.94;;;-139.71;67.63
3598;BME280;1813;52.016;8.714;2023-07-16T02:12:20;-16261.94;;;-139.71;67.67
3598;BME280;1813;52.016;8.714;2023-07-16T02:14:54;-16261.94;;;-139.71;67.72
3598;BME280;1813;52.016;8.714;2023-07-16T02:17:31;-16261.94;;;-139.71;67.59
3598;BME280;1813;52.016;8.714;2023-07-16T02:20:07;-16261.94;;;-139.71;67.37
3598;BME280;1813;52.016;8.714;2023-07-16T02:22:41;-16261.94;;;-139.71;67.56
3598;BME280;1813;52.016;8.714;2023-07-16T02:25:16;-16261.94;;;-139.71;67.51
3598;BME280;1813;52.016;8.714;2023-07-16T02:27:52;-16261.94;;;-139.71;67.58
3598;BME280;1813;52.016;8.714;2023-07-16T02:30:27;-16261.94;;;-139.71;67.92
3598;BME280;1813;52.016;8.714;2023-07-16T02:33:03;-16261.94;;;-139.71;67.92
3598;BME280;1813;52.016;8.714;2023-07-16T02:35:37;-16261.94;;;-139.71;68.07
3598;BME280;1813;52.016;8.714;2023-07-16T02:38:11;-16261.94;;;-139.71;68.04
3598;BME280;1813;52.016;8.714;2023-07-16T02:40:45;-16261.94;;;-139.71;68.28
3598;BME280;1813;52.016;8.714;2023-07-16T02:43:19;-16261.94;;;-139.71;68.53
3598;BME280;1813;52.016;8.714;2023-07-16T02:45:53;-16261.94;;;-139.71;68.66
3598;BME280;1813;52.016;8.714;2023-07-16T02:48:29;-16261.94;;;-139.71;68.60
3598;BME280;1813;52.016;8.714;2023-07-16T02:51:03;-16261.94;;;-139.71;68.37
3598;BME280;1813;52.016;8.714;2023-07-16T02:53:40;-16261.94;;;-139.71;68.61
3598;BME280;1813;52.016;8.714;2023-07-16T02:56:14;-16261.94;;;-139.71;68.83
3598;BME280;1813;52.016;8.714;2023-07-16T02:58:47;-16261.94;;;-139.71;68.85
3598;BME280;1813;52.016;8.714;2023-07-16T03:01:21;-16261.94;;;-139.71;69.12
3598;BME280;1813;52.016;8.714;2023-07-16T03:03:58;-16261.94;;;-139.71;69.05
3598;BME280;1813;52.016;8.714;2023-07-16T03:06:35;-16261.94;;;-139.71;69.45
3598;BME280;1813;52.016;8.714;2023-07-16T03:09:09;-16261.94;;;-139.71;69.59
3598;BME280;1813;52.016;8.714;2023-07-16T03:11:44;-16261.94;;;-139.71;69.91
3598;BME280;1813;52.016;8.714;2023-07-16T03:14:18;-16261.94;;;-139.71;70.12
3598;BME280;1813;52.016;8.714;2023-07-16T03:16:52;-16261.94;;;-139.71;70.11
3598;BME280;1813;52.016;8.714;2023-07-16T03:19:29;-16261.94;;;-139.71;70.38
3598;BME280;1813;52.016;8.714;2023-07-16T03:22:04;-16261.94;;;-139.71;70.75
3598;BME280;1813;52.016;8.714;2023-07-16T03:24:38;-16261.94;;;-139.71;70.94
3598;BME280;1813;52.016;8.714;2023-07-16T03:27:11;-16261.94;;;-139.71;70.97
3598;BME280;1813;52.016;8.714;2023-07-16T03:29:47;-16261.94;;;-139.71;71.41
3598;BME280;1813;52.016;8.714;2023-07-16T03:32:23;-16261.94;;;-139.71;71.31
3598;BME280;1813;52.016;8.714;2023-07-16T03:34:59;-16261.94;;;-139.71;71.31
3598;BME280;1813;52.016;8.714;2023-07-16T03:37:33;-16261.94;;;-139.71;71.26
3598;BME280;1813;52.016;8.714;2023-07-16T03:40:14;-16261.94;;;-139.71;71.09
3598;BME280;1813;52.016;8.714;2023-07-16T03:42:50;-16261.94;;;-139.71;71.31
3598;BME280;1813;52.016;8.714;2023-07-16T03:45:25;-16261.94;;;-139.71;71.37
3598;BME280;1813;52.016;8.714;2023-07-16T03:47:58;-16261.94;;;-139.71;71.37
3598;BME280;1813;52.016;8.714;2023-07-16T03:50:37;-16261.94;;;-139.71;71.53
3598;BME280;1813;52.016;8.714;2023-07-16T03:53:11;-16261.94;;;-139.71;71.70
3598;BME280;1813;52.016;8.714;2023-07-16T03:55:45;-16261.94;;;-139.71;71.44
3598;BME280;1813;52.016;8.714;2023-07-16T03:58:19;-16261.94;;;-139.71;71.17
3598;BME280;1813;52.016;8.714;2023-07-16T04:00:53;-16261.94;;;-139.71;71.01
3598;BME280;1813;52.016;8.714;2023-07-16T04:03:28;-16261.94;;;-139.71;70.74
3598;BME280;1813;52.016;8.714;2023-07-16T04:06:08;-16261.94;;;-139.71;70.41
3598;BME280;1813;52.016;8.714;2023-07-16T04:08:42;-16261.94;;;-139.71;70.32
3598;BME280;1813;52.016;8.714;2023-07-16T04:11:16;-16261.94;;;-139.71;70.30
3598;BME280;1813;52.016;8.714;2023-07-16T04:13:50;-16261.94;;;-139.71;69.74
3598;BME280;1813;52.016;8.714;2023-07-16T04:16:24;-16261.94;;;-139.71;69.74
3598;BME280;1813;52.016;8.714;2023-07-16T04:18:58;-16261.94;;;-139.71;69.85
3598;BME280;1813;52.016;8.714;2023-07-16T04:21:35;-16261.94;;;-139.71;69.71
3598;BME280;1813;52.016;8.714;2023-07-16T04:24:09;-16261.94;;;-139.71;69.64
3598;BME280;1813;52.016;8.714;2023-07-16T04:26:44;-16261.94;;;-139.71;69.29
3598;BME280;1813;52.016;8.714;2023-07-16T04:29:18;-16261.94;;;-139.71;69.32
3598;BME280;1813;52.016;8.714;2023-07-16T04:31:52;-16261.94;;;-139.71;69.15
3598;BME280;1813;52.016;8.714;2023-07-16T04:34:26;-16261.94;;;-139.71;69.10
3598;BME280;1813;52.016;8.714;2023-07-16T04:37:04;-16261.94;;;-139.71;68.99
3598;BME280;1813;52.016;8.714;2023-07-16T04:39:40;-16261.94;;;-139.71;69.15
3598;BME280;1813;52.016;8.714;2023-07-16T04:42:14;-16261.94;;;-139.71;68.93
3598;BME280;1813;52.016;8.714;2023-07-16T04:44:48;-16261.94;;;-139.71;69.05
3598;BME280;1813;52.016;8.714;2023-07-16T04:47:22;-16261.94;;;-139.71;68.92
3598;BME280;1813;52.016;8.714;2023-07-16T04:49:55;-16261.94;;;-139.71;69.03
3598;BME280;1813;52.016;8.714;2023-07-16T04:52:32;-16261.94;;;-139.71;68.50
3598;BME280;1813;52.016;8.714;2023-07-16T04:55:06;-16261.94;;;-139.71;68.57
3598;BME280;1813;52.016;8.714;2023-07-16T04:57:40;-16261.94;;;-139.71;68.68
3598;BME280;1813;52.016;8.714;2023-07-16T05:00:14;-16261.94;;;-139.71;68.39
3598;BME280;1813;52.016;8.714;2023-07-16T05:02:48;-16261.94;;;-139.71;68.28
3598;BME280;1813;52.016;8.714;2023-07-16T05:05:22;-16261.94;;;-139.71;68.49
3598;BME280;1813;52.016;8.714;2023-07-16T05:07:59;-16261.94;;;-139.71;68.21
3598;BME280;1813;52.016;8.714;2023-07-16T05:10:32;-16261.94;;;-139.71;67.94
3598;BME280;1813;52.016;8.714;2023-07-16T05:13:07;-16261.94;;;-139.71;67.81
3598;BME280;1813;52.016;8.714;2023-07-16T05:15:42;-16261.94;;;-139.71;67.57
3598;BME280;1813;52.016;8.714;2023-07-16T05:18:17;-16261.94;;;-139.71;67.90
3598;BME280;1813;52.016;8.714;2023-07-16T05:20:52;-16261.94;;;-139.71;67.26
3598;BME280;1813;52.016;8.714;2023-07-16T05:23:30;-16261.94;;;-139.71;66.87
3598;BME280;1813;52.016;8.714;2023-07-16T05:26:04;-16261.94;;;-139.71;65.97
3598;BME280;1813;52.016;8.714;2023-07-16T05:28:38;-16261.94;;;-139.71;65.72
3598;BME280;1813;52.016;8.714;2023-07-16T05:31:12;-16261.94;;;-139.71;65.20
3598;BME280;1813;52.016;8.714;2023-07-16T05:33:46;-16261.94;;;-139.71;65.67
3598;BME280;1813;52.016;8.714;2023-07-16T05:36:19;-16261.94;;;-139.71;64.78
3598;BME280;1813;52.016;8.714;2023-07-16T05:38:56;-16261.94;;;-139.71;64.88
3598;BME280;1813;52.016;8.714;2023-07-16T05:41:32;-16261.94;;;-139.71;63.89
3598;BME280;1813;52.016;8.714;2023-07-16T05:44:06;-16261.94;;;-139.71;63.81
3598;BME280;1813;52.016;8.714;2023-07-16T05:46:41;-16261.94;;;-139.71;63.06
3598;BME280;1813;52.016;8.714;2023-07-16T05:49:15;-16261.94;;;-139.71;63.28
3598;BME280;1813;52.016;8.714;2023-07-16T05:51:49;-16261.94;;;-139.71;62.91
3598;BME280;1813;52.016;8.714;2023-07-16T05:54:26;-16261.94;;;-139.71;62.51
3598;BME280;1813;52.016;8.714;2023-07-16T05:57:00;-16261.94;;;-139.71;61.49
3598;BME280;1813;52.016;8.714;2023-07-16T05:59:34;-16261.94;;;-139.71;62.24
3598;BME280;1813;52.016;8.714;2023-07-16T06:02:07;-16261.94;;;-139.71;60.06
3598;BME280;1813;52.016;8.714;2023-07-16T06:04:41;-16261.94;;;-139.71;59.19
3598;BME280;1813;52.016;8.714;2023-07-16T06:07:15;-16261.94;;;-139.71;58.12
3598;BME280;1813;52.016;8.714;2023-07-16T06:09:52;-16261.94;;;-139.71;57.68
3598;BME280;1813;52.016;8.714;2023-07-16T06:12:26;-16261.94;;;-139.71;57.37
3598;BME280;1813;52.016;8.714;2023-07-16T06:15:00;-16261.94;;;-139.71;56.65
3598;BME280;1813;52.016;8.714;2023-07-16T06:17:34;-16261.94;;;-139.71;53.86
3598;BME280;1813;52.016;8.714;2023-07-16T06:20:09;-16261.94;;;-139.71;53.36
3598;BME280;1813;52.016;8.714;2023-07-16T06:22:43;-16261.94;;;-139.71;52.78
3598;BME280;1813;52.016;8.714;2023-07-16T06:25:24;-16261.94;;;-139.71;52.53
3598;BME280;1813;52.016;8.714;2023-07-16T06:27:58;-16261.94;;;-139.71;50.73
3598;BME280;1813;52.016;8.714;2023-07-16T06:30:31;-16261.94;;;-139.71;49.21
3598;BME280;1813;52.016;8.714;2023-07-16T06:33:06;-16261.94;;;-139.71;49.29
3598;BME280;1813;52.016;8.714;2023-07-16T06:35:40;-16261.94;;;-139.71;48.90
3598;BME280;1813;52.016;8.714;2023-07-16T06:38:17;-16261.94;;;-139.71;48.07
3598;BME280;1813;52.016;8.714;2023-07-16T06:40:54;-16261.94;;;-139.71;47.50
3598;BME280;1813;52.016;8.714;2023-07-16T06:43:29;-16261.94;;;-139.71;46.42
3598;BME280;1813;52.016;8.714;2023-07-16T06:46:03;-16261.94;;;-139.71;46.38
3598;BME280;1813;52.016;8.714;2023-07-16T06:48:37;-16261.94;;;-139.71;46.75
3598;BME280;1813;52.016;8.714;2023-07-16T06:51:10;-16261.94;;;-139.71;46.22
3598;BME280;1813;52.016;8.714;2023-07-16T06:53:45;-16261.94;;;-139.71;45.67
3598;BME280;1813;52.016;8.714;2023-07-16T06:56:22;-16261.94;;;-139.71;45.87
3598;BME280;1813;52.016;8.714;2023-07-16T06:58:55;-16261.94;;;-139.71;46.46
3598;BME280;1813;52.016;8.714;2023-07-16T07:01:29;-16261.94;;;-139.71;46.46
3598;BME280;1813;52.016;8.714;2023-07-16T07:04:03;-16261.94;;;-139.71;46.80
3598;BME280;1813;52.016;8.714;2023-07-16T07:06:38;-16261.94;;;-139.71;46.21
3598;BME280;1813;52.016;8.714;2023-07-16T07:09:11;-16261.94;;;-139.71;45.68
3598;BME280;1813;52.016;8.714;2023-07-16T07:11:48;-16261.94;;;-139.71;45.96
3598;BME280;1813;52.016;8.714;2023-07-16T07:14:22;-16261.94;;;-139.71;44.86
3598;BME280;1813;52.016;8.714;2023-07-16T07:16:56;-16261.94;;;-139.71;44.47
3598;BME280;1813;52.016;8.714;2023-07-16T07:19:29;-16261.94;;;-139.71;45.34
3598;BME280;1813;52.016;8.714;2023-07-16T07:22:04;-16261.94;;;-139.71;45.08
3598;BME280;1813;52.016;8.714;2023-07-16T07:24:38;-16261.94;;;-139.71;44.77
3598;BME280;1813;52.016;8.714;2023-07-16T07:27:15;-16261.94;;;-139.71;44.81
3598;BME280;1813;52.016;8.714;2023-07-16T07:29:49;-16261.94;;;-139.71;45.62
3598;BME280;1813;52.016;8.714;2023-07-16T07:32:23;-16261.94;;;-139.71;45.48
3598;BME280;1813;52.016;8.714;2023-07-16T07:34:58;-16261.94;;;-139.71;44.34
3598;BME280;1813;52.016;8.714;2023-07-16T07:37:32;-16261.94;;;-139.71;44.14
3598;BME280;1813;52.016;8.714;2023-07-16T07:40:07;-16261.94;;;-139.71;44.92
3598;BME280;1813;52.016;8.714;2023-07-16T07:42:44;-16261.94;;;-139.71;44.28
3598;BME280;1813;52.016;8.714;2023-07-16T07:45:18;-16261.94;;;-139.71;43.77
3598;BME280;1813;52.016;8.714;2023-07-16T07:47:52;-16261.94;;;-139.71;44.37
3598;BME280;1813;52.016;8.714;2023-07-16T07:50:25;-16261.94;;;-139.71;44.93
3598;BME280;1813;52.016;8.714;2023-07-16T07:52:59;-16261.94;;;-139.71;43.97
3598;BME280;1813;52.016;8.714;2023-07-16T07:55:34;-16261.94;;;-139.71;43.49
3598;BME280;1813;52.016;8.714;2023-07-16T07:58:11;-16261.94;;;-139.71;42.65
3598;BME280;1813;52.016;8.714;2023-07-16T08:00:45;-16261.94;;;-139.71;42.56
3598;BME280;1813;52.016;8.714;2023-07-16T08:03:19;-16261.94;;;-139.71;42.99
3598;BME280;1813;52.016;8.714;2023-07-16T08:05:53;-16261.94;;;-139.71;43.21
3598;BME280;1813;52.016;8.714;2023-07-16T08:08:27;-16261.94;;;-139.71;43.15
3598;BME280;1813;52.016;8.714;2023-07-16T08:11:01;-16261.94;;;-139.71;42.66
3598;BME280;1813;52.016;8.714;2023-07-16T08:13:38;-16261.94;;;-139.71;43.19
3598;BME280;1813;52.016;8.714;2023-07-16T08:16:12;-16261.94;;;-139.71;42.98
3598;BME280;1813;52.016;8.714;2023-07-16T08:18:46;-16261.94;;;-139.71;42.86
3598;BME280;1813;52.016;8.714;2023-07-16T08:21:20;-16261.94;;;-139.71;42.90
3598;BME280;1813;52.016;8.714;2023-07-16T08:23:54;-16261.94;;;-139.71;42.09
3598;BME280;1813;52.016;8.714;2023-07-16T08:26:28;-16261.94;;;-139.71;41.20
3598;BME280;1813;52.016;8.714;2023-07-16T08:29:05;-16261.94;;;-139.71;40.84
3598;BME280;1813;52.016;8.714;2023-07-16T08:31:39;-16261.94;;;-139.71;40.75
3598;BME280;1813;52.016;8.714;2023-07-16T08:34:13;-16261.94;;;-139.71;39.76
3598;BME280;1813;52.016;8.714;2023-07-16T08:36:47;-16261.94;;;-139.71;39.92
3598;BME280;1813;52.016;8.714;2023-07-16T08:39:21;-16261.94;;;-139.71;39.89
3598;BME280;1813;52.016;8.714;2023-07-16T08:41:57;-16261.94;;;-139.71;39.75
3598;BME280;1813;52.016;8.714;2023-07-16T08:44:34;-16261.94;;;-139.71;39.58
3598;BME280;1813;52.016;8.714;2023-07-16T08:47:08;-16261.94;;;-139.71;39.71
3598;BME280;1813;52.016;8.714;2023-07-16T08:49:44;-16261.94;;;-139.71;38.95
3598;BME280;1813;52.016;8.714;2023-07-16T08:52:27;-16261.94;;;-139.71;38.24
3598;BME280;1813;52.016;8.714;2023-07-16T08:55:01;-16261.94;;;-139.71;38.60
3598;BME280;1813;52.016;8.714;2023-07-16T08:57:35;-16261.94;;;-139.71;38.96
3598;BME280;1813;52.016;8.714;2023-07-16T09:00:14;-16261.94;;;-139.71;39.91
3598;BME280;1813;52.016;8.714;2023-07-16T09:02:51;-16261.94;;;-139.71;38.84
3598;BME280;1813;52.016;8.714;2023-07-16T09:05:25;-16261.94;;;-139.71;38.78
3598;BME280;1813;52.016;8.714;2023-07-16T09:07:59;-16261.94;;;-139.71;39.19
3598;BME280;1813;52.016;8.714;2023-07-16T09:10:33;-16261.94;;;-139.71;38.39
3598;BME280;1813;52.016;8.714;2023-07-16T09:13:07;-16261.94;;;-139.71;38.73
3598;BME280;1813;52.016;8.714;2023-07-16T09:15:53;-16261.94;;;-139.71;38.43
3598;BME280;1813;52.016;8.714;2023-07-16T09:18:29;-16261.94;;;-139.71;38.43
3598;BME280;1813;52.016;8.714;2023-07-16T09:21:03;-16261.94;;;-139.71;39.23
3598;BME280;1813;52.016;8.714;2023-07-16T09:23:37;-16261.94;;;-139.71;38.91
3598;BME280;1813;52.016;8.714;2023-07-16T09:26:12;-16261.94;;;-139.71;38.87
3598;BME280;1813;52.016;8.714;2023-07-16T09:28:48;-16261.94;;;-139.71;38.16
3598;BME280;1813;52.016;8.714;2023-07-16T09:31:25;-16261.94;;;-139.71;38.51
3598;BME280;1813;52.016;8.714;2023-07-16T09:33:58;-16261.94;;;-139.71;38.05
3598;BME280;1813;52.016;8.714;2023-07-16T09:36:33;-16261.94;;;-139.71;38.38
3598;BME280;1813;52.016;8.714;2023-07-16T09:39:07;-16261.94;;;-139.71;38.18
3598;BME280;1813;52.016;8.714;2023-07-16T09:41:41;-16261.94;;;-139.71;38.32
3598;BME280;1813;52.016;8.714;2023-07-16T09:44:16;-16261.94;;;-139.71;38.27
3598;BME280;1813;52.016;8.714;2023-07-16T09:46:53;-16261.94;;;-139.71;38.88
3598;BME280;1813;52.016;8.714;2023-07-16T09:49:28;-16261.94;;;-139.71;38.55
3598;BME280;1813;52.016;8.714;2023-07-16T09:52:04;-16261.94;;;-139.71;37.73
3598;BME280;1813;52.016;8.714;2023-07-16T09:54:39;-16261.94;;;-139.71;37.77
3598;BME280;1813;52.016;8.714;2023-07-16T09:57:15;-16261.94;;;-139.71;38.09
3598;BME280;1813;52.016;8.714;2023-07-16T09:59:50;-16261.94;;;-139.71;37.95
3598;BME280;1813;52.016;8.714;2023-07-16T10:02:27;-16261.94;;;-139.71;37.87
3598;BME280;1813;52.016;8.714;2023-07-16T10:05:11;-16261.94;;;-139.71;37.76
3598;BME280;1813;52.016;8.714;2023-07-16T10:07:50;-16261.94;;;-139.71;37.20
3598;BME280;1813;52.016;8.714;2023-07-16T10:10:26;-16261.94;;;-139.71;37.65
3598;BME280;1813;52.016;8.714;2023-07-16T10:13:02;-16261.94;;;-139.71;38.39
3598;BME280;1813;52.016;8.714;2023-07-16T10:15:36;-16261.94;;;-139.71;38.74
3598;BME280;1813;52.016;8.714;2023-07-16T10:18:23;-16261.94;;;-139.71;37.01
3598;BME280;1813;52.016;8.714;2023-07-16T10:21:02;-16261.94;;;-139.71;36.72
3598;BME280;1813;52.016;8.714;2023-07-16T10:23:38;-16261.94;;;-139.71;36.27
3598;BME280;1813;52.016;8.714;2023-07-16T10:26:14;-16261.94;;;-139.71;36.13
3598;BME280;1813;52.016;8.714;2023-07-16T10:28:48;-16261.94;;;-139.71;35.31
3598;BME280;1813;52.016;8.714;2023-07-16T10:31:23;-16261.94;;;-139.71;35.20
3598;BME280;1813;52.016;8.714;2023-07-16T10:34:01;-16261.94;;;-139.71;35.71
3598;BME280;1813;52.016;8.714;2023-07-16T10:36:39;-16261.94;;;-139.71;35.19
3598;BME280;1813;52.016;8.714;2023-07-16T10:39:15;-16261.94;;;-139.71;35.33
3598;BME280;1813;52.016;8.714;2023-07-16T10:41:51;-16261.94;;;-139.71;35.25
3598;BME280;1813;52.016;8.714;2023-07-16T10:44:25;-16261.94;;;-139.71;34.85
3598;BME280;1813;52.016;8.714;2023-07-16T10:47:01;-16261.94;;;-139.71;35.10
3598;BME280;1813;52.016;8.714;2023-07-16T10:49:39;-16261.94;;;-139.71;34.67
3598;BME280;1813;52.016;8.714;2023-07-16T10:52:13;-16261.94;;;-139.71;35.44
3598;BME280;1813;52.016;8.714;2023-07-16T10:54:46;-16261.94;;;-139.71;35.16
3598;BME280;1813;52.016;8.714;2023-07-16T10:57:22;-16261.94;;;-139.71;35.87
3598;BME280;1813;52.016;8.714;2023-07-16T10:59:58;-16261.94;;;-139.71;35.58
3598;BME280;1813;52.016;8.714;2023-07-16T11:02:34;-16261.94;;;-139.71;34.79
3598;BME280;1813;52.016;8.714;2023-07-16T11:05:18;-16261.94;;;-139.71;34.35
3598;BME280;1813;52.016;8.714;2023-07-16T11:07:52;-16261.94;;;-139.71;34.20
3598;BME280;1813;52.016;8.714;2023-07-16T11:10:28;-16261.94;;;-139.71;35.13
3598;BME280;1813;52.016;8.714;2023-07-16T11:13:03;-16261.94;;;-139.71;34.31
3598;BME280;1813;52.016;8.714;2023-07-16T11:15:39;-16261.94;;;-139.71;34.73
3598;BME280;1813;52.016;8.714;2023-07-16T11:18:13;-16261.94;;;-139.71;35.01
3598;BME280;1813;52.016;8.714;2023-07-16T11:20:53;-16261.94;;;-139.71;35.20
3598;BME280;1813;52.016;8.714;2023-07-16T11:23:27;-16261.94;;;-139.71;35.28
3598;BME280;1813;52.016;8.714;2023-07-16T11:26:01;-16261.94;;;-139.71;34.75
3598;BME280;1813;52.016;8.714;2023-07-16T11:28:36;-16261.94;;;-139.71;34.32
3598;BME280;1813;52.016;8.714;2023-07-16T11:31:13;-16261.94;;;-139.71;34.76
3598;BME280;1813;52.016;8.714;2023-07-16T11:33:47;-16261.94;;;-139.71;33.72
3598;BME280;1813;52.016;8.714;2023-07-16T11:36:24;-16261.94;;;-139.71;34.44
3598;BME280;1813;52.016;8.714;2023-07-16T11:38:58;-16261.94;;;-139.71;33.80
3598;BME280;1813;52.016;8.714;2023-07-16T11:41:31;-16261.94;;;-139.71;33.82
3598;BME280;1813;52.016;8.714;2023-07-16T11:44:07;-16261.94;;;-139.71;34.14
3598;BME280;1813;52.016;8.714;2023-07-16T11:46:41;-16261.94;;;-139.71;33.83
3598;BME280;1813;52.016;8.714;2023-07-16T11:49:20;-16261.94;;;-139.71;33.94
3598;BME280;1813;52.016;8.714;2023-07-16T11:51:57;-16261.94;;;-139.71;33.47
3598;BME280;1813;52.016;8.714;2023-07-16T11:54:31;-16261.94;;;-139.71;34.36
3598;BME280;1813;52.016;8.714;2023-07-16T11:57:06;-16261.94;;;-139.71;34.33
3598;BME280;1813;52.016;8.714;2023-07-16T11:59:40;-16261.94;;;-139.71;33.81
3598;BME280;1813;52.016;8.714;2023-07-16T12:02:15;-16261.94;;;-139.71;33.44
3598;BME280;1813;52.016;8.714;2023-07-16T12:04:49;-16261.94;;;-139.71;33.10
3598;BME280;1813;52.016;8.714;2023-07-16T12:07:34;-16261.94;;;-139.71;33.00
3598;BME280;1813;52.016;8.714;2023-07-16T12:10:09;-16261.94;;;-139.71;33.06
3598;BME280;1813;52.016;8.714;2023-07-16T12:12:43;-16261.94;;;-139.71;32.70
3598;BME280;1813;52.016;8.714;2023-07-16T12:15:16;-16261.94;;;-139.71;32.64
3598;BME280;1813;52.016;8.714;2023-07-16T12:17:50;-16261.94;;;-139.71;32.64
3598;BME280;1813;52.016;8.714;2023-07-16T12:20:25;-16261.94;;;-139.71;33.23
3598;BME280;1813;52.016;8.714;2023-07-16T12:23:02;-16261.94;;;-139.71;32.77
3598;BME280;1813;52.016;8.714;2023-07-16T12:25:36;-16261.94;;;-139.71;33.08
3598;BME280;1813;52.016;8.714;2023-07-16T12:28:11;-16261.94;;;-139.71;33.15
3598;BME280;1813;52.016;8.714;2023-07-16T12:30:45;-16261.94;;;-139.71;33.46
3598;BME280;1813;52.016;8.714;2023-07-16T12:33:19;-16261.94;;;-139.71;34.38
3598;BME280;1813;52.016;8.714;2023-07-16T12:35:53;-16261.94;;;-139.71;34.04
3598;BME280;1813;52.016;8.714;2023-07-16T12:38:29;-16261.94;;;-139.71;32.85
3598;BME280;1813;52.016;8.714;2023-07-16T12:41:04;-16261.94;;;-139.71;33.16
3598;BME280;1813;52.016;8.714;2023-07-16T12:43:38;-16261.94;;;-139.71;33.15
3598;BME280;1813;52.016;8.714;2023-07-16T12:46:12;-16261.94;;;-139.71;32.54
3598;BME280;1813;52.016;8.714;2023-07-16T12:48:46;-16261.94;;;-139.71;32.87
3598;BME280;1813;52.016;8.714;2023-07-16T12:51:20;-16261.94;;;-139.71;32.38
3598;BME280;1813;52.016;8.714;2023-07-16T12:53:57;-16261.94;;;-139.71;33.02
3598;BME280;1813;52.016;8.714;2023-07-16T12:56:31;-16261.94;;;-139.71;33.40
3598;BME280;1813;52.016;8.714;2023-07-16T12:59:05;-16261.94;;;-139.71;32.91
3598;BME280;1813;52.016;8.714;2023-07-16T13:01:39;-16261.94;;;-139.71;32.50
3598;BME280;1813;52.016;8.714;2023-07-16T13:04:12;-16261.94;;;-139.71;32.45
3598;BME280;1813;52.016;8.714;2023-07-16T13:06:46;-16261.94;;;-139.71;32.57
3598;BME280;1813;52.016;8.714;2023-07-16T13:09:23;-16261.94;;;-139.71;33.36
3598;BME280;1813;52.016;8.714;2023-07-16T13:11:56;-16261.94;;;-139.71;33.23
3598;BME280;1813;52.016;8.714;2023-07-16T13:14:30;-16261.94;;;-139.71;33.30
3598;BME280;1813;52.016;8.714;2023-07-16T13:17:05;-16261.94;;;-139.71;32.94
3598;BME280;1813;52.016;8.714;2023-07-16T13:19:39;-16261.94;;;-139.71;32.68
3598;BME280;1813;52.016;8.714;2023-07-16T13:22:13;-16261.94;;;-139.71;33.30
3598;BME280;1813;52.016;8.714;2023-07-16T13:24:50;-16261.94;;;-139.71;33.39
3598;BME280;1813;52.016;8.714;2023-07-16T13:27:26;-16261.94;;;-139.71;33.77
3598;BME280;1813;52.016;8.714;2023-07-16T13:30:00;-16261.94;;;-139.71;33.15
3598;BME280;1813;52.016;8.714;2023-07-16T13:32:34;-16261.94;;;-139.71;33.18